sensor_id;sensor_type;location;lat;lon;timestamp;noise_LAeq;noise_LA_min;noise_LA_max;noise_LA01;noise_LA95
45651;Laerm;31365;48.858;8.530;2024-02-23T00:02:00;52.01;39.70;72.62;;
45651;Laerm;31365;48.858;8.530;2024-02-23T00:04:29;43.28;40.23;60.37;;
45651;Laerm;31365;48.858;8.530;2024-02-23T00:06:57;46.46;39.08;70.07;;
45651;Laerm;31365;48.858;8.530;2024-02-23T00:09:26;44.52;39.92;68.91;;
45651;Laerm;31365;48.858;8.530;2024-02-23T00:11:54;42.95;38.67;60.13;;
45651;Laerm;31365;48.858;8.530;2024-02-23T00:14:24;42.99;38.67;58.52;;
45651;Laerm;31365;48.858;8.530;2024-02-23T00:16:53;43.48;40.13;67.57;;
45651;Laerm;31365;48.858;8.530;2024-02-23T00:19:21;49.42;39.21;78.15;;
45651;Laerm;31365;48.858;8.530;2024-02-23T00:21:51;52.94;39.21;80.70;;
45651;Laerm;31365;48.858;8.530;2024-02-23T00:24:19;43.33;38.67;64.32;;
45651;Laerm;31365;48.858;8.530;2024-02-23T00:26:48;46.83;39.70;71.19;;
45651;Laerm;31365;48.858;8.530;2024-02-23T00:29:19;55.57;39.58;75.52;;
45651;Laerm;31365;48.858;8.530;2024-02-23T00:31:50;57.15;39.34;80.72;;
45651;Laerm;31365;48.858;8.530;2024-02-23T00:34:18;49.59;40.23;74.21;;
45651;Laerm;31365;48.858;8.530;2024-02-23T00:36:46;56.77;41.30;82.35;;
45651;Laerm;31365;48.858;8.530;2024-02-23T00:39:16;44.48;40.98;62.70;;
45651;Laerm;31365;48.858;8.530;2024-02-23T00:41:44;48.15;40.62;76.82;;
45651;Laerm;31365;48.858;8.530;2024-02-23T00:44:13;46.09;38.37;70.36;;
45651;Laerm;31365;48.858;8.530;2024-02-23T00:46:41;49.04;39.46;76.81;;
45651;Laerm;31365;48.858;8.530;2024-02-23T00:49:11;44.77;39.34;65.95;;
45651;Laerm;31365;48.858;8.530;2024-02-23T00:51:40;51.87;40.13;81.69;;
45651;Laerm;31365;48.858;8.530;2024-02-23T00:54:08;50.64;40.89;77.03;;
45651;Laerm;31365;48.858;8.530;2024-02-23T00:56:37;43.71;39.81;61.46;;
45651;Laerm;31365;48.858;8.530;2024-02-23T00:59:17;43.82;38.81;59.75;;
45651;Laerm;31365;48.858;8.530;2024-02-23T01:01:45;49.05;39.70;79.74;;
45651;Laerm;31365;48.858;8.530;2024-02-23T01:04:15;49.46;39.21;74.66;;
45651;Laerm;31365;48.858;8.530;2024-02-23T01:06:44;56.57;38.67;74.85;;
45651;Laerm;31365;48.858;8.530;2024-02-23T01:09:12;42.32;37.52;54.22;;
45651;Laerm;31365;48.858;8.530;2024-02-23T01:11:43;55.69;39.58;73.99;;
45651;Laerm;31365;48.858;8.530;2024-02-23T01:14:11;58.79;38.67;77.81;;
45651;Laerm;31365;48.858;8.530;2024-02-23T01:16:40;46.07;39.21;73.68;;
45651;Laerm;31365;48.858;8.530;2024-02-23T01:19:08;48.91;40.36;75.19;;
45651;Laerm;31365;48.858;8.530;2024-02-23T01:21:38;65.26;38.81;87.14;;
45651;Laerm;31365;48.858;8.530;2024-02-23T01:24:06;46.55;39.70;76.40;;
45651;Laerm;31365;48.858;8.530;2024-02-23T01:26:35;44.23;40.62;64.25;;
45651;Laerm;31365;48.858;8.530;2024-02-23T01:29:07;42.99;38.67;55.61;;
45651;Laerm;31365;48.858;8.530;2024-02-23T01:31:35;43.35;38.37;56.58;;
45651;Laerm;31365;48.858;8.530;2024-02-23T01:34:04;58.94;40.36;79.77;;
45651;Laerm;31365;48.858;8.530;2024-02-23T01:36:33;49.07;40.80;77.22;;
45651;Laerm;31365;48.858;8.530;2024-02-23T01:39:05;45.56;40.43;69.12;;
45651;Laerm;31365;48.858;8.530;2024-02-23T01:41:34;44.81;39.08;73.40;;
45651;Laerm;31365;48.858;8.530;2024-02-23T01:44:03;47.28;39.70;74.32;;
45651;Laerm;31365;48.858;8.530;2024-02-23T01:46:32;60.91;40.03;81.71;;
45651;Laerm;31365;48.858;8.530;2024-02-23T01:49:01;46.37;39.92;69.71;;
45651;Laerm;31365;48.858;8.530;2024-02-23T01:51:31;43.31;40.43;60.30;;
45651;Laerm;31365;48.858;8.530;2024-02-23T01:54:01;42.54;37.88;44.11;;
45651;Laerm;31365;48.858;8.530;2024-02-23T01:56:32;44.09;38.52;62.55;;
45651;Laerm;31365;48.858;8.530;2024-02-23T01:59:04;43.39;39.92;58.56;;
45651;Laerm;31365;48.858;8.530;2024-02-23T02:01:32;45.01;39.46;69.36;;
45651;Laerm;31365;48.858;8.530;2024-02-23T02:04:01;51.67;39.08;68.87;;
45651;Laerm;31365;48.858;8.530;2024-02-23T02:06:29;42.39;38.52;52.38;;
45651;Laerm;31365;48.858;8.530;2024-02-23T02:08:58;50.35;38.95;79.61;;
45651;Laerm;31365;48.858;8.530;2024-02-23T02:11:27;46.96;39.08;77.09;;
45651;Laerm;31365;48.858;8.530;2024-02-23T02:13:57;45.67;39.23;67.21;;
45651;Laerm;31365;48.858;8.530;2024-02-23T02:16:25;44.78;38.81;71.94;;
45651;Laerm;31365;48.858;8.530;2024-02-23T02:18:53;46.21;39.46;73.50;;
45651;Laerm;31365;48.858;8.530;2024-02-23T02:21:22;43.92;39.21;61.90;;
45651;Laerm;31365;48.858;8.530;2024-02-23T02:23:52;44.55;38.05;72.16;;
45651;Laerm;31365;48.858;8.530;2024-02-23T02:26:20;43.67;37.88;66.17;;
45651;Laerm;31365;48.858;8.530;2024-02-23T02:28:49;42.75;38.81;58.10;;
45651;Laerm;31365;48.858;8.530;2024-02-23T02:31:18;44.86;38.95;72.31;;
45651;Laerm;31365;48.858;8.530;2024-02-23T02:33:47;42.77;39.70;59.36;;
45651;Laerm;31365;48.858;8.530;2024-02-23T02:36:15;43.13;39.58;56.91;;
45651;Laerm;31365;48.858;8.530;2024-02-23T02:38:44;42.61;38.67;53.40;;
45651;Laerm;31365;48.858;8.530;2024-02-23T02:41:12;42.62;39.92;48.87;;
45651;Laerm;31365;48.858;8.530;2024-02-23T02:43:40;42.85;39.08;54.22;;
45651;Laerm;31365;48.858;8.530;2024-02-23T02:46:09;55.33;38.05;76.53;;
45651;Laerm;31365;48.858;8.530;2024-02-23T02:48:39;58.74;39.58;79.35;;
45651;Laerm;31365;48.858;8.530;2024-02-23T02:51:07;44.94;38.52;70.75;;
45651;Laerm;31365;48.858;8.530;2024-02-23T02:53:35;50.64;39.70;82.81;;
45651;Laerm;31365;48.858;8.530;2024-02-23T02:56:06;45.68;39.34;73.76;;
45651;Laerm;31365;48.858;8.530;2024-02-23T02:58:34;42.36;37.52;58.67;;
45651;Laerm;31365;48.858;8.530;2024-02-23T03:01:03;44.21;38.52;64.82;;
45651;Laerm;31365;48.858;8.530;2024-02-23T03:03:32;55.29;39.92;77.72;;
45651;Laerm;31365;48.858;8.530;2024-02-23T03:06:02;45.42;38.37;72.11;;
45651;Laerm;31365;48.858;8.530;2024-02-23T03:08:31;43.50;37.88;59.39;;
45651;Laerm;31365;48.858;8.530;2024-02-23T03:11:00;45.13;39.46;66.20;;
45651;Laerm;31365;48.858;8.530;2024-02-23T03:13:29;54.87;38.81;71.38;;
45651;Laerm;31365;48.858;8.530;2024-02-23T03:15:59;46.81;38.37;62.86;;
45651;Laerm;31365;48.858;8.530;2024-02-23T03:18:28;46.62;39.08;73.00;;
45651;Laerm;31365;48.858;8.530;2024-02-23T03:20:56;43.89;38.81;64.74;;
45651;Laerm;31365;48.858;8.530;2024-02-23T03:23:27;44.43;38.37;73.07;;
45651;Laerm;31365;48.858;8.530;2024-02-23T03:25:55;56.40;39.21;76.06;;
45651;Laerm;31365;48.858;8.530;2024-02-23T03:28:24;45.68;38.52;61.03;;
45651;Laerm;31365;48.858;8.530;2024-02-23T03:30:53;42.31;38.52;59.42;;
45651;Laerm;31365;48.858;8.530;2024-02-23T03:33:21;42.99;38.67;53.32;;
45651;Laerm;31365;48.858;8.530;2024-02-23T03:35:50;45.59;38.52;71.92;;
45651;Laerm;31365;48.858;8.530;2024-02-23T03:38:18;66.98;39.70;89.54;;
45651;Laerm;31365;48.858;8.530;2024-02-23T03:40:49;58.32;39.21;81.67;;
45651;Laerm;31365;48.858;8.530;2024-02-23T03:43:17;62.37;39.21;83.02;;
45651;Laerm;31365;48.858;8.530;2024-02-23T03:45:46;42.96;38.21;63.25;;
45651;Laerm;31365;48.858;8.530;2024-02-23T03:48:15;46.77;38.81;63.57;;
45651;Laerm;31365;48.858;8.530;2024-02-23T03:50:43;59.34;38.21;79.28;;
45651;Laerm;31365;48.858;8.530;2024-02-23T03:53:12;47.42;38.81;76.40;;
45651;Laerm;31365;48.858;8.530;2024-02-23T03:55:40;55.78;38.81;76.37;;
45651;Laerm;31365;48.858;8.530;2024-02-23T03:58:10;50.56;38.52;70.42;;
45651;Laerm;31365;48.858;8.530;2024-02-23T04:00:38;56.82;39.46;78.49;;
45651;Laerm;31365;48.858;8.530;2024-02-23T04:03:07;56.52;39.21;75.44;;
45651;Laerm;31365;48.858;8.530;2024-02-23T04:05:36;55.46;39.92;86.08;;
45651;Laerm;31365;48.858;8.530;2024-02-23T04:08:06;56.31;39.34;76.34;;
45651;Laerm;31365;48.858;8.530;2024-02-23T04:10:35;43.48;40.03;59.78;;
45651;Laerm;31365;48.858;8.530;2024-02-23T04:13:04;58.41;40.62;78.96;;
45651;Laerm;31365;48.858;8.530;2024-02-23T04:15:33;62.89;39.46;81.24;;
45651;Laerm;31365;48.858;8.530;2024-02-23T04:18:03;57.19;38.81;76.19;;
45651;Laerm;31365;48.858;8.530;2024-02-23T04:20:33;57.55;38.95;75.69;;
45651;Laerm;31365;48.858;8.530;2024-02-23T04:23:01;60.43;37.88;79.97;;
45651;Laerm;31365;48.858;8.530;2024-02-23T04:25:30;52.49;37.88;75.41;;
45651;Laerm;31365;48.858;8.530;2024-02-23T04:27:58;63.16;40.23;76.77;;
45651;Laerm;31365;48.858;8.530;2024-02-23T04:30:27;59.78;38.95;77.26;;
45651;Laerm;31365;48.858;8.530;2024-02-23T04:32:57;59.77;40.13;78.46;;
45651;Laerm;31365;48.858;8.530;2024-02-23T04:35:27;60.95;38.67;74.95;;
45651;Laerm;31365;48.858;8.530;2024-02-23T04:37:56;62.18;39.70;82.27;;
45651;Laerm;31365;48.858;8.530;2024-02-23T04:40:24;62.55;40.33;80.24;;
45651;Laerm;31365;48.858;8.530;2024-02-23T04:45:21;58.79;38.67;76.60;;
45651;Laerm;31365;48.858;8.530;2024-02-23T04:47:49;55.95;39.08;73.88;;
45651;Laerm;31365;48.858;8.530;2024-02-23T04:50:21;64.57;41.06;82.95;;
45651;Laerm;31365;48.858;8.530;2024-02-23T04:52:50;61.33;37.52;77.83;;
45651;Laerm;31365;48.858;8.530;2024-02-23T04:55:19;57.39;39.58;76.86;;
45651;Laerm;31365;48.858;8.530;2024-02-23T04:57:47;57.71;38.52;78.44;;
45651;Laerm;31365;48.858;8.530;2024-02-23T05:00:16;60.10;40.03;76.58;;
45651;Laerm;31365;48.858;8.530;2024-02-23T05:02:45;62.74;40.98;79.17;;
45651;Laerm;31365;48.858;8.530;2024-02-23T05:05:14;62.24;39.70;81.79;;
45651;Laerm;31365;48.858;8.530;2024-02-23T05:07:45;58.32;38.05;76.74;;
45651;Laerm;31365;48.858;8.530;2024-02-23T05:10:13;61.10;39.46;80.00;;
45651;Laerm;31365;48.858;8.530;2024-02-23T05:12:42;62.20;39.58;77.01;;
45651;Laerm;31365;48.858;8.530;2024-02-23T05:15:11;59.44;41.14;73.54;;
45651;Laerm;31365;48.858;8.530;2024-02-23T05:17:40;63.03;38.95;78.11;;
45651;Laerm;31365;48.858;8.530;2024-02-23T05:20:11;62.61;38.95;82.68;;
45651;Laerm;31365;48.858;8.530;2024-02-23T05:25:09;59.59;39.81;76.86;;
45651;Laerm;31365;48.858;8.530;2024-02-23T05:30:07;60.37;39.46;79.53;;
45651;Laerm;31365;48.858;8.530;2024-02-23T05:32:36;64.27;40.71;80.85;;
45651;Laerm;31365;48.858;8.530;2024-02-23T05:35:05;63.99;40.89;78.95;;
45651;Laerm;31365;48.858;8.530;2024-02-23T05:37:34;61.54;40.80;75.60;;
45651;Laerm;31365;48.858;8.530;2024-02-23T05:40:05;60.28;39.70;78.00;;
45651;Laerm;31365;48.858;8.530;2024-02-23T05:42:39;67.49;41.22;86.47;;
45651;Laerm;31365;48.858;8.530;2024-02-23T05:45:09;63.40;40.89;78.19;;
45651;Laerm;31365;48.858;8.530;2024-02-23T05:47:38;64.99;43.04;78.98;;
45651;Laerm;31365;48.858;8.530;2024-02-23T05:50:14;65.64;40.53;82.71;;
45651;Laerm;31365;48.858;8.530;2024-02-23T05:52:43;62.70;41.22;77.84;;
45651;Laerm;31365;48.858;8.530;2024-02-23T05:55:12;63.75;42.82;81.43;;
45651;Laerm;31365;48.858;8.530;2024-02-23T05:57:44;65.60;40.33;80.23;;
45651;Laerm;31365;48.858;8.530;2024-02-23T06:00:14;67.39;42.41;88.38;;
45651;Laerm;31365;48.858;8.530;2024-02-23T06:02:46;65.17;42.09;80.98;;
45651;Laerm;31365;48.858;8.530;2024-02-23T06:05:15;64.63;42.47;77.22;;
45651;Laerm;31365;48.858;8.530;2024-02-23T06:07:44;65.35;43.14;80.44;;
45651;Laerm;31365;48.858;8.530;2024-02-23T06:10:12;65.22;43.68;78.16;;
45651;Laerm;31365;48.858;8.530;2024-02-23T06:12:41;66.02;43.29;77.74;;
45651;Laerm;31365;48.858;8.530;2024-02-23T06:15:11;64.20;41.82;77.34;;
45651;Laerm;31365;48.858;8.530;2024-02-23T06:17:39;65.89;44.90;80.27;;
45651;Laerm;31365;48.858;8.530;2024-02-23T06:20:09;66.50;42.71;79.33;;
45651;Laerm;31365;48.858;8.530;2024-02-23T06:22:38;64.04;47.34;77.25;;
45651;Laerm;31365;48.858;8.530;2024-02-23T06:25:07;65.26;41.46;79.78;;
45651;Laerm;31365;48.858;8.530;2024-02-23T06:27:36;65.17;44.27;82.35;;
45651;Laerm;31365;48.858;8.530;2024-02-23T06:30:06;65.21;44.27;78.01;;
45651;Laerm;31365;48.858;8.530;2024-02-23T06:32:37;71.78;44.73;90.53;;
45651;Laerm;31365;48.858;8.530;2024-02-23T06:35:07;65.10;42.41;79.83;;
45651;Laerm;31365;48.858;8.530;2024-02-23T06:37:36;64.28;42.65;80.33;;
45651;Laerm;31365;48.858;8.530;2024-02-23T06:40:06;65.58;43.44;79.22;;
45651;Laerm;31365;48.858;8.530;2024-02-23T06:42:35;64.91;41.38;77.71;;
45651;Laerm;31365;48.858;8.530;2024-02-23T06:45:05;62.97;41.61;77.81;;
45651;Laerm;31365;48.858;8.530;2024-02-23T06:47:37;60.87;41.61;74.26;;
45651;Laerm;31365;48.858;8.530;2024-02-23T06:50:07;64.74;44.73;79.67;;
45651;Laerm;31365;48.858;8.530;2024-02-23T06:52:36;60.36;39.58;76.32;;
45651;Laerm;31365;48.858;8.530;2024-02-23T06:55:06;66.05;41.68;80.94;;
45651;Laerm;31365;48.858;8.530;2024-02-23T06:57:35;60.91;40.43;76.55;;
45651;Laerm;31365;48.858;8.530;2024-02-23T07:00:07;62.86;41.82;77.67;;
45651;Laerm;31365;48.858;8.530;2024-02-23T07:02:37;63.62;40.62;80.92;;
45651;Laerm;31365;48.858;8.530;2024-02-23T07:05:06;64.49;42.47;79.47;;
45651;Laerm;31365;48.858;8.530;2024-02-23T07:07:35;63.25;41.61;78.26;;
45651;Laerm;31365;48.858;8.530;2024-02-23T07:10:05;63.79;40.03;80.04;;
45651;Laerm;31365;48.858;8.530;2024-02-23T07:12:35;63.43;42.47;77.95;;
45651;Laerm;31365;48.858;8.530;2024-02-23T07:15:04;63.22;40.43;80.40;;
45651;Laerm;31365;48.858;8.530;2024-02-23T07:17:33;65.12;41.06;77.92;;
45651;Laerm;31365;48.858;8.530;2024-02-23T07:20:05;66.91;42.16;89.10;;
45651;Laerm;31365;48.858;8.530;2024-02-23T07:22:33;59.54;40.53;73.45;;
45651;Laerm;31365;48.858;8.530;2024-02-23T07:25:05;60.71;39.21;76.29;;
45651;Laerm;31365;48.858;8.530;2024-02-23T07:27:33;60.67;39.92;77.34;;
45651;Laerm;31365;48.858;8.530;2024-02-23T07:32:32;63.78;42.71;78.43;;
45651;Laerm;31365;48.858;8.530;2024-02-23T07:35:04;66.65;43.04;85.41;;
45651;Laerm;31365;48.858;8.530;2024-02-23T07:37:33;64.34;43.58;80.74;;
45651;Laerm;31365;48.858;8.530;2024-02-23T07:40:02;65.49;40.33;82.72;;
45651;Laerm;31365;48.858;8.530;2024-02-23T07:42:32;64.31;41.96;80.36;;
45651;Laerm;31365;48.858;8.530;2024-02-23T07:45:03;63.09;43.81;77.16;;
45651;Laerm;31365;48.858;8.530;2024-02-23T07:47:32;62.81;40.98;77.46;;
45651;Laerm;31365;48.858;8.530;2024-02-23T07:50:01;64.48;42.29;78.34;;
45651;Laerm;31365;48.858;8.530;2024-02-23T07:52:31;62.65;43.49;77.21;;
45651;Laerm;31365;48.858;8.530;2024-02-23T07:55:01;64.26;40.43;78.43;;
45651;Laerm;31365;48.858;8.530;2024-02-23T07:57:32;62.83;43.44;77.08;;
45651;Laerm;31365;48.858;8.530;2024-02-23T08:00:02;60.32;37.52;78.43;;
45651;Laerm;31365;48.858;8.530;2024-02-23T08:02:37;62.08;39.92;75.07;;
45651;Laerm;31365;48.858;8.530;2024-02-23T08:05:07;62.74;39.70;77.75;;
45651;Laerm;31365;48.858;8.530;2024-02-23T08:07:37;63.09;43.49;78.23;;
45651;Laerm;31365;48.858;8.530;2024-02-23T08:10:07;61.55;39.81;78.12;;
45651;Laerm;31365;48.858;8.530;2024-02-23T08:12:36;69.08;42.47;84.69;;
45651;Laerm;31365;48.858;8.530;2024-02-23T08:15:09;61.92;40.13;78.41;;
45651;Laerm;31365;48.858;8.530;2024-02-23T08:17:37;61.73;43.04;75.23;;
45651;Laerm;31365;48.858;8.530;2024-02-23T08:20:07;63.33;43.19;75.27;;
45651;Laerm;31365;48.858;8.530;2024-02-23T08:22:37;65.98;41.30;86.74;;
45651;Laerm;31365;48.858;8.530;2024-02-23T08:25:06;60.76;41.30;77.96;;
45651;Laerm;31365;48.858;8.530;2024-02-23T08:27:37;63.10;41.14;79.60;;
45651;Laerm;31365;48.858;8.530;2024-02-23T08:30:07;61.88;40.98;76.83;;
45651;Laerm;31365;48.858;8.530;2024-02-23T08:32:36;67.06;40.80;86.12;;
45651;Laerm;31365;48.858;8.530;2024-02-23T08:35:06;63.62;42.88;78.23;;
45651;Laerm;31365;48.858;8.530;2024-02-23T08:37:37;64.37;42.65;83.25;;
45651;Laerm;31365;48.858;8.530;2024-02-23T08:40:08;61.45;39.58;75.99;;
45651;Laerm;31365;48.858;8.530;2024-02-23T08:42:38;60.82;38.67;76.65;;
45651;Laerm;31365;48.858;8.530;2024-02-23T08:45:07;67.90;42.88;84.26;;
45651;Laerm;31365;48.858;8.530;2024-02-23T08:47:37;61.58;40.62;78.15;;
45651;Laerm;31365;48.858;8.530;2024-02-23T08:50:07;63.66;41.30;79.25;;
45651;Laerm;31365;48.858;8.530;2024-02-23T08:52:37;58.98;39.46;79.76;;
45651;Laerm;31365;48.858;8.530;2024-02-23T08:55:05;62.60;41.30;77.04;;
45651;Laerm;31365;48.858;8.530;2024-02-23T08:57:34;62.83;41.06;78.18;;
45651;Laerm;31365;48.858;8.530;2024-02-23T09:00:03;64.94;42.93;79.02;;
45651;Laerm;31365;48.858;8.530;2024-02-23T09:02:32;65.30;44.23;89.37;;
45651;Laerm;31365;48.858;8.530;2024-02-23T09:05:04;63.22;41.61;78.24;;
45651;Laerm;31365;48.858;8.530;2024-02-23T09:07:34;63.69;42.59;79.89;;
45651;Laerm;31365;48.858;8.530;2024-02-23T09:10:05;64.50;44.23;77.95;;
45651;Laerm;31365;48.858;8.530;2024-02-23T09:15:02;65.00;43.58;77.27;;
45651;Laerm;31365;48.858;8.530;2024-02-23T09:17:31;61.70;40.71;82.43;;
45651;Laerm;31365;48.858;8.530;2024-02-23T09:19:59;62.35;40.62;79.65;;
45651;Laerm;31365;48.858;8.530;2024-02-23T09:22:29;61.79;41.68;75.47;;
45651;Laerm;31365;48.858;8.530;2024-02-23T09:24:57;64.82;41.82;78.88;;
45651;Laerm;31365;48.858;8.530;2024-02-23T09:27:27;61.22;41.22;77.51;;
45651;Laerm;31365;48.858;8.530;2024-02-23T09:29:56;63.57;40.13;81.92;;
45651;Laerm;31365;48.858;8.530;2024-02-23T09:32:25;61.38;39.70;75.32;;
45651;Laerm;31365;48.858;8.530;2024-02-23T09:34:54;64.21;41.68;81.03;;
45651;Laerm;31365;48.858;8.530;2024-02-23T09:37:22;63.05;43.81;77.13;;
45651;Laerm;31365;48.858;8.530;2024-02-23T09:39:51;61.92;41.38;77.20;;
45651;Laerm;31365;48.858;8.530;2024-02-23T09:42:22;64.76;44.69;77.66;;
45651;Laerm;31365;48.858;8.530;2024-02-23T09:44:58;60.80;42.16;75.27;;
45651;Laerm;31365;48.858;8.530;2024-02-23T09:47:28;62.36;44.07;77.29;;
45651;Laerm;31365;48.858;8.530;2024-02-23T09:49:58;63.51;43.81;78.07;;
45651;Laerm;31365;48.858;8.530;2024-02-23T09:52:29;61.48;41.06;72.75;;
45651;Laerm;31365;48.858;8.530;2024-02-23T09:54:57;61.41;39.08;79.30;;
45651;Laerm;31365;48.858;8.530;2024-02-23T09:57:26;63.82;40.80;76.40;;
45651;Laerm;31365;48.858;8.530;2024-02-23T09:59:57;62.90;40.27;77.78;;
45651;Laerm;31365;48.858;8.530;2024-02-23T10:02:26;72.16;43.90;85.16;;
45651;Laerm;31365;48.858;8.530;2024-02-23T10:04:57;60.83;42.65;74.85;;
45651;Laerm;31365;48.858;8.530;2024-02-23T10:07:28;61.68;41.96;77.37;;
45651;Laerm;31365;48.858;8.530;2024-02-23T10:09:58;63.05;42.16;78.59;;
45651;Laerm;31365;48.858;8.530;2024-02-23T10:12:26;62.04;41.30;75.38;;
45651;Laerm;31365;48.858;8.530;2024-02-23T10:14:58;63.76;45.39;78.42;;
45651;Laerm;31365;48.858;8.530;2024-02-23T10:17:26;62.92;41.68;78.51;;
45651;Laerm;31365;48.858;8.530;2024-02-23T10:19:57;61.76;41.89;78.41;;
45651;Laerm;31365;48.858;8.530;2024-02-23T10:22:26;66.10;41.68;84.29;;
45651;Laerm;31365;48.858;8.530;2024-02-23T10:24:57;61.39;40.23;76.90;;
45651;Laerm;31365;48.858;8.530;2024-02-23T10:27:26;62.93;39.81;78.96;;
45651;Laerm;31365;48.858;8.530;2024-02-23T10:29:55;62.26;40.33;79.26;;
45651;Laerm;31365;48.858;8.530;2024-02-23T10:32:27;62.16;39.70;84.16;;
45651;Laerm;31365;48.858;8.530;2024-02-23T10:35:00;59.34;40.53;78.97;;
45651;Laerm;31365;48.858;8.530;2024-02-23T10:37:32;64.15;41.75;80.18;;
45651;Laerm;31365;48.858;8.530;2024-02-23T10:40:03;61.93;40.71;77.53;;
45651;Laerm;31365;48.858;8.530;2024-02-23T10:42:38;61.93;40.71;77.53;;
45651;Laerm;31365;48.858;8.530;2024-02-23T10:45:09;65.23;41.06;84.25;;
45651;Laerm;31365;48.858;8.530;2024-02-23T10:47:39;63.13;42.22;76.89;;
45651;Laerm;31365;48.858;8.530;2024-02-23T10:50:09;69.01;41.53;89.52;;
45651;Laerm;31365;48.858;8.530;2024-02-23T10:52:42;62.99;42.09;77.85;;
45651;Laerm;31365;48.858;8.530;2024-02-23T10:55:12;62.72;39.81;77.17;;
45651;Laerm;31365;48.858;8.530;2024-02-23T10:57:41;63.72;41.75;81.19;;
45651;Laerm;31365;48.858;8.530;2024-02-23T11:00:11;63.47;40.89;79.18;;
45651;Laerm;31365;48.858;8.530;2024-02-23T11:02:48;62.04;43.04;75.95;;
45651;Laerm;31365;48.858;8.530;2024-02-23T11:05:19;63.61;46.13;77.17;;
45651;Laerm;31365;48.858;8.530;2024-02-23T11:07:48;62.85;39.81;77.30;;
45651;Laerm;31365;48.858;8.530;2024-02-23T11:10:18;62.93;43.09;77.95;;
45651;Laerm;31365;48.858;8.530;2024-02-23T11:12:57;61.06;39.46;76.02;;
45651;Laerm;31365;48.858;8.530;2024-02-23T11:15:28;61.91;43.24;76.03;;
45651;Laerm;31365;48.858;8.530;2024-02-23T11:17:58;60.74;40.53;74.95;;
45651;Laerm;31365;48.858;8.530;2024-02-23T11:20:34;61.80;40.23;77.43;;
45651;Laerm;31365;48.858;8.530;2024-02-23T11:23:13;63.01;43.44;79.82;;
45651;Laerm;31365;48.858;8.530;2024-02-23T11:25:42;62.32;42.29;76.70;;
45651;Laerm;31365;48.858;8.530;2024-02-23T11:28:22;62.00;41.75;76.54;;
45651;Laerm;31365;48.858;8.530;2024-02-23T11:30:51;62.18;42.71;75.63;;
45651;Laerm;31365;48.858;8.530;2024-02-23T11:33:27;61.40;39.81;75.76;;
45651;Laerm;31365;48.858;8.530;2024-02-23T11:36:06;63.16;41.82;78.09;;
45651;Laerm;31365;48.858;8.530;2024-02-23T11:38:36;61.91;40.03;75.73;;
45651;Laerm;31365;48.858;8.530;2024-02-23T11:41:05;61.11;41.38;73.91;;
45651;Laerm;31365;48.858;8.530;2024-02-23T11:43:35;62.16;39.92;76.81;;
45651;Laerm;31365;48.858;8.530;2024-02-23T11:46:03;63.65;43.58;79.22;;
45651;Laerm;31365;48.858;8.530;2024-02-23T11:48:33;66.51;42.19;84.95;;
45651;Laerm;31365;48.858;8.530;2024-02-23T11:51:01;61.84;41.06;74.34;;
45651;Laerm;31365;48.858;8.530;2024-02-23T11:53:31;62.72;43.81;74.07;;
45651;Laerm;31365;48.858;8.530;2024-02-23T11:55:59;62.30;41.82;75.64;;
45651;Laerm;31365;48.858;8.530;2024-02-23T11:58:28;61.83;40.53;77.62;;
45651;Laerm;31365;48.858;8.530;2024-02-23T12:00:57;62.33;42.65;76.25;;
45651;Laerm;31365;48.858;8.530;2024-02-23T12:03:27;63.40;42.98;77.45;;
45651;Laerm;31365;48.858;8.530;2024-02-23T12:05:57;62.38;48.94;78.27;;
45651;Laerm;31365;48.858;8.530;2024-02-23T12:10:56;59.95;41.30;73.95;;
45651;Laerm;31365;48.858;8.530;2024-02-23T12:13:27;64.32;42.41;77.30;;
45651;Laerm;31365;48.858;8.530;2024-02-23T12:15:57;61.12;40.33;77.88;;
45651;Laerm;31365;48.858;8.530;2024-02-23T12:18:25;63.13;39.34;78.51;;
45651;Laerm;31365;48.858;8.530;2024-02-23T12:21:00;64.22;42.16;77.94;;
45651;Laerm;31365;48.858;8.530;2024-02-23T12:23:39;63.73;43.81;76.89;;
45651;Laerm;31365;48.858;8.530;2024-02-23T12:26:08;63.32;38.95;77.79;;
45651;Laerm;31365;48.858;8.530;2024-02-23T12:28:37;61.04;38.21;76.30;;
45651;Laerm;31365;48.858;8.530;2024-02-23T12:31:06;63.16;39.11;77.50;;
45651;Laerm;31365;48.858;8.530;2024-02-23T12:33:36;63.87;41.46;81.35;;
45651;Laerm;31365;48.858;8.530;2024-02-23T12:36:10;63.06;41.14;75.58;;
45651;Laerm;31365;48.858;8.530;2024-02-23T12:38:38;62.64;40.62;78.68;;
45651;Laerm;31365;48.858;8.530;2024-02-23T12:41:07;59.93;40.71;74.95;;
45651;Laerm;31365;48.858;8.530;2024-02-23T12:43:36;64.34;40.53;77.13;;
45651;Laerm;31365;48.858;8.530;2024-02-23T12:46:07;63.32;42.82;76.27;;
45651;Laerm;31365;48.858;8.530;2024-02-23T12:48:36;61.16;40.98;73.27;;
45651;Laerm;31365;48.858;8.530;2024-02-23T12:51:06;62.94;43.72;75.72;;
45651;Laerm;31365;48.858;8.530;2024-02-23T12:56:07;64.90;43.63;77.24;;
45651;Laerm;31365;48.858;8.530;2024-02-23T12:58:37;63.48;42.35;75.63;;
45651;Laerm;31365;48.858;8.530;2024-02-23T13:01:07;62.63;40.33;78.00;;
45651;Laerm;31365;48.858;8.530;2024-02-23T13:03:38;60.74;41.75;75.51;;
45651;Laerm;31365;48.858;8.530;2024-02-23T13:06:09;62.62;41.46;77.80;;
45651;Laerm;31365;48.858;8.530;2024-02-23T13:08:38;62.37;42.22;76.71;;
45651;Laerm;31365;48.858;8.530;2024-02-23T13:11:08;61.24;41.61;78.26;;
45651;Laerm;31365;48.858;8.530;2024-02-23T13:13:37;61.45;42.53;76.27;;
45651;Laerm;31365;48.858;8.530;2024-02-23T13:16:08;64.95;42.93;78.59;;
45651;Laerm;31365;48.858;8.530;2024-02-23T13:18:37;65.37;42.59;84.33;;
45651;Laerm;31365;48.858;8.530;2024-02-23T13:21:05;63.37;40.71;77.54;;
45651;Laerm;31365;48.858;8.530;2024-02-23T13:23:36;65.67;44.03;80.75;;
45651;Laerm;31365;48.858;8.530;2024-02-23T13:26:04;62.98;43.14;74.50;;
45651;Laerm;31365;48.858;8.530;2024-02-23T13:28:33;61.19;40.33;72.85;;
45651;Laerm;31365;48.858;8.530;2024-02-23T13:31:02;64.82;41.96;78.33;;
45651;Laerm;31365;48.858;8.530;2024-02-23T13:33:31;64.54;42.88;80.23;;
45651;Laerm;31365;48.858;8.530;2024-02-23T13:38:28;63.96;41.75;82.37;;
45651;Laerm;31365;48.858;8.530;2024-02-23T13:40:57;62.07;42.22;75.38;;
45651;Laerm;31365;48.858;8.530;2024-02-23T13:43:26;61.47;39.70;77.67;;
45651;Laerm;31365;48.858;8.530;2024-02-23T13:45:54;61.32;37.32;76.27;;
45651;Laerm;31365;48.858;8.530;2024-02-23T13:48:23;63.07;42.71;76.84;;
45651;Laerm;31365;48.858;8.530;2024-02-23T13:50:51;63.50;43.44;78.29;;
45651;Laerm;31365;48.858;8.530;2024-02-23T13:53:21;63.74;41.68;77.98;;
45651;Laerm;31365;48.858;8.530;2024-02-23T13:55:49;66.23;42.65;84.01;;
45651;Laerm;31365;48.858;8.530;2024-02-23T13:58:20;64.36;40.80;78.69;;
45651;Laerm;31365;48.858;8.530;2024-02-23T14:00:48;69.90;42.03;89.90;;
45651;Laerm;31365;48.858;8.530;2024-02-23T14:03:17;59.81;41.61;75.09;;
45651;Laerm;31365;48.858;8.530;2024-02-23T14:05:46;62.27;41.38;78.34;;
45651;Laerm;31365;48.858;8.530;2024-02-23T14:08:15;60.90;44.73;73.34;;
45651;Laerm;31365;48.858;8.530;2024-02-23T14:10:43;61.45;45.36;73.50;;
45651;Laerm;31365;48.858;8.530;2024-02-23T14:13:13;62.14;43.44;76.70;;
45651;Laerm;31365;48.858;8.530;2024-02-23T14:15:43;62.13;44.83;77.24;;
45651;Laerm;31365;48.858;8.530;2024-02-23T14:18:12;65.23;44.92;79.94;;